www.cux-wetter.de
Wetterdaten: Woche 18.04.11 - 24.04.11 (KW16)
Datum Zeit Temp. A. Feuchte A. Luftdruck Regen Wind Richtung Sonnenschein Solar Taupunkt Windchill Windben
18.04.2011 00:00 8,5 C 87 % 1024,5 hPa 0,0 l/m 0,0 km/h (0 Bft) N 0,00 h 0 W/m 6,4 C 8,5 C 0,0 km/h (0 Bft)
18.04.2011 01:00 8,3 C 87 % 1024,5 hPa 0,0 l/m 0,2 km/h (0 Bft) N 0,00 h 0 W/m 6,3 C 8,3 C 0,2 km/h (0 Bft)
18.04.2011 02:00 8,0 C 88 % 1024,5 hPa 0,0 l/m 1,3 km/h (1 Bft) N-NO 0,00 h 0 W/m 6,2 C 8,0 C 1,3 km/h (1 Bft)
18.04.2011 03:00 8,0 C 88 % 1023,8 hPa 0,0 l/m 0,1 km/h (0 Bft) N 0,00 h 0 W/m 6,2 C 8,0 C 0,1 km/h (0 Bft)
18.04.2011 04:00 8,0 C 88 % 1023,5 hPa 0,0 l/m 0,0 km/h (0 Bft) N 0,00 h 0 W/m 6,1 C 8,0 C 0,0 km/h (0 Bft)
18.04.2011 05:00 7,9 C 88 % 1023,5 hPa 0,0 l/m 0,0 km/h (0 Bft) N 0,00 h 0 W/m 6,0 C 7,9 C 0,0 km/h (0 Bft)
18.04.2011 06:00 8,0 C 89 % 1023,5 hPa 0,0 l/m 0,0 km/h (0 Bft) N 0,00 h 0 W/m 6,3 C 8,0 C 0,0 km/h (0 Bft)
18.04.2011 07:00 8,1 C 89 % 1023,5 hPa 0,0 l/m 0,1 km/h (0 Bft) N 0,00 h 0 W/m 6,3 C 8,1 C 0,1 km/h (0 Bft)
18.04.2011 08:00 8,4 C 89 % 1023,5 hPa 0,0 l/m 0,3 km/h (0 Bft) NO 0,00 h 0 W/m 6,7 C 8,4 C 0,3 km/h (0 Bft)
18.04.2011 09:00 8,9 C 88 % 1023,5 hPa 0,0 l/m 0,3 km/h (0 Bft) NO 0,00 h 0 W/m 7,0 C 8,9 C 0,3 km/h (0 Bft)
18.04.2011 10:00 9,6 C 87 % 1023,5 hPa 0,0 l/m 2,3 km/h (1 Bft) NO 0,00 h 0 W/m 7,4 C 9,6 C 2,3 km/h (1 Bft)
18.04.2011 11:00 11,2 C 82 % 1023,5 hPa 0,0 l/m 4,9 km/h (1 Bft) NO 0,00 h 0 W/m 8,3 C 10,8 C 4,9 km/h (1 Bft)
18.04.2011 12:00 12,5 C 76 % 1023,0 hPa 0,0 l/m 6,1 km/h (2 Bft) NO 0,00 h 0 W/m 8,4 C 12,0 C 6,1 km/h (2 Bft)
18.04.2011 13:00 13,5 C 73 % 1022,5 hPa 0,0 l/m 6,5 km/h (2 Bft) NO 0,00 h 0 W/m 8,6 C 12,9 C 6,5 km/h (2 Bft)
18.04.2011 14:00 14,2 C 70 % 1021,5 hPa 0,0 l/m 6,6 km/h (2 Bft) NO 0,00 h 0 W/m 8,7 C 13,5 C 6,6 km/h (2 Bft)
18.04.2011 15:00 14,9 C 67 % 1021,2 hPa 0,0 l/m 7,8 km/h (2 Bft) NO 0,00 h 0 W/m 8,8 C 13,9 C 7,8 km/h (2 Bft)
18.04.2011 16:00 14,9 C 66 % 1020,3 hPa 0,0 l/m 9,2 km/h (2 Bft) NO 0,00 h 0 W/m 8,7 C 13,5 C 9,2 km/h (2 Bft)
18.04.2011 17:00 14,3 C 68 % 1019,4 hPa 0,0 l/m 9,1 km/h (2 Bft) NO 0,00 h 0 W/m 8,6 C 12,7 C 9,1 km/h (2 Bft)
18.04.2011 18:00 13,4 C 71 % 1018,5 hPa 0,0 l/m 8,1 km/h (2 Bft) NO 0,00 h 0 W/m 8,3 C 12,3 C 8,1 km/h (2 Bft)
18.04.2011 19:00 12,9 C 78 % 1018,5 hPa 0,0 l/m 5,7 km/h (2 Bft) NO 0,00 h 0 W/m 9,2 C 12,5 C 5,7 km/h (2 Bft)
18.04.2011 20:00 12,2 C 82 % 1018,5 hPa 0,0 l/m 1,5 km/h (1 Bft) NO 0,00 h 0 W/m 9,2 C 12,2 C 1,5 km/h (1 Bft)
18.04.2011 21:00 11,5 C 83 % 1018,5 hPa 0,0 l/m 0,1 km/h (0 Bft) N 0,00 h 0 W/m 8,6 C 11,5 C 0,1 km/h (0 Bft)
18.04.2011 22:00 11,0 C 83 % 1018,5 hPa 0,0 l/m 2,1 km/h (1 Bft) O 0,00 h 0 W/m 8,2 C 10,8 C 2,1 km/h (1 Bft)
18.04.2011 23:00 10,8 C 83 % 1018,5 hPa 0,0 l/m 4,0 km/h (1 Bft) O 0,00 h 0 W/m 7,9 C 10,4 C 4,0 km/h (1 Bft)
19.04.2011 00:00 10,4 C 82 % 1018,5 hPa 0,0 l/m 4,6 km/h (1 Bft) O-SO 0,00 h 0 W/m 7,6 C 10,4 C 4,6 km/h (1 Bft)
19.04.2011 01:00 10,0 C 82 % 1018,5 hPa 0,0 l/m 4,3 km/h (1 Bft) O-SO 0,00 h 0 W/m 7,1 C 9,9 C 4,3 km/h (1 Bft)
19.04.2011 02:00 9,5 C 82 % 1017,6 hPa 0,0 l/m 3,7 km/h (1 Bft) SO 0,00 h 0 W/m 6,5 C 9,2 C 3,7 km/h (1 Bft)
19.04.2011 03:00 8,9 C 83 % 1017,5 hPa 0,0 l/m 1,6 km/h (1 Bft) SO 0,00 h 0 W/m 6,1 C 8,9 C 1,6 km/h (1 Bft)
19.04.2011 04:00 8,6 C 84 % 1017,5 hPa 0,0 l/m 4,5 km/h (1 Bft) O-SO 0,00 h 0 W/m 6,0 C 8,5 C 4,5 km/h (1 Bft)
19.04.2011 05:00 8,3 C 84 % 1017,5 hPa 0,0 l/m 4,1 km/h (1 Bft) O-SO 0,00 h 0 W/m 5,8 C 8,2 C 4,1 km/h (1 Bft)
19.04.2011 06:00 8,2 C 85 % 1017,4 hPa 0,0 l/m 2,7 km/h (1 Bft) O-SO 0,00 h 0 W/m 5,8 C 8,2 C 2,7 km/h (1 Bft)
19.04.2011 07:00 8,4 C 86 % 1017,5 hPa 0,0 l/m 3,6 km/h (1 Bft) O-SO 0,00 h 0 W/m 6,1 C 8,3 C 3,6 km/h (1 Bft)
19.04.2011 08:00 9,7 C 84 % 1017,5 hPa 0,0 l/m 6,9 km/h (2 Bft) S-SO 0,00 h 0 W/m 7,1 C 8,6 C 6,9 km/h (2 Bft)
19.04.2011 09:00 12,1 C 74 % 1017,5 hPa 0,0 l/m 11,8 km/h (2 Bft) S-SO 0,00 h 0 W/m 7,5 C 9,2 C 11,8 km/h (2 Bft)
19.04.2011 10:00 15,4 C 62 % 1017,5 hPa 0,0 l/m 17,4 km/h (3 Bft) S 0,00 h 0 W/m 8,2 C 11,1 C 17,4 km/h (3 Bft)
19.04.2011 11:00 18,7 C 48 % 1017,3 hPa 0,0 l/m 18,3 km/h (3 Bft) S 0,00 h 0 W/m 7,4 C 14,9 C 18,3 km/h (3 Bft)
19.04.2011 12:00 20,8 C 41 % 1016,5 hPa 0,0 l/m 18,3 km/h (3 Bft) S 0,00 h 0 W/m 7,0 C 17,5 C 18,3 km/h (3 Bft)
19.04.2011 13:00 22,3 C 34 % 1016,5 hPa 0,0 l/m 16,4 km/h (3 Bft) S 0,00 h 0 W/m 5,7 C 19,9 C 16,4 km/h (3 Bft)
19.04.2011 14:00 22,9 C 33 % 1015,9 hPa 0,0 l/m 17,0 km/h (3 Bft) S 0,00 h 0 W/m 5,8 C 20,6 C 17,0 km/h (3 Bft)
19.04.2011 15:00 21,2 C 38 % 1015,5 hPa 0,0 l/m 10,8 km/h (2 Bft) N-NO 0,00 h 0 W/m 6,2 C 19,8 C 10,8 km/h (2 Bft)
19.04.2011 16:00 21,0 C 37 % 1015,5 hPa 0,0 l/m 9,7 km/h (2 Bft) N-NO 0,00 h 0 W/m 5,7 C 19,7 C 9,7 km/h (2 Bft)
19.04.2011 17:00 20,2 C 38 % 1015,5 hPa 0,0 l/m 8,0 km/h (2 Bft) NO 0,00 h 0 W/m 5,5 C 19,6 C 8,0 km/h (2 Bft)
19.04.2011 18:00 19,2 C 43 % 1015,5 hPa 0,0 l/m 3,0 km/h (1 Bft) NO 0,00 h 0 W/m 6,3 C 19,2 C 3,0 km/h (1 Bft)
19.04.2011 19:00 17,6 C 49 % 1015,5 hPa 0,0 l/m 0,6 km/h (0 Bft) NO 0,00 h 0 W/m 6,8 C 17,6 C 0,6 km/h (0 Bft)
19.04.2011 20:00 16,1 C 51 % 1015,5 hPa 0,0 l/m 0,0 km/h (0 Bft) N 0,00 h 0 W/m 5,8 C 16,1 C 0,0 km/h (0 Bft)
19.04.2011 21:00 14,8 C 52 % 1015,5 hPa 0,0 l/m 0,0 km/h (0 Bft) N 0,00 h 0 W/m 5,1 C 14,8 C 0,0 km/h (0 Bft)
19.04.2011 22:00 14,0 C 56 % 1015,5 hPa 0,0 l/m 1,2 km/h (1 Bft) O-SO 0,00 h 0 W/m 5,3 C 14,0 C 1,2 km/h (1 Bft)
19.04.2011 23:00 13,4 C 59 % 1015,5 hPa 0,0 l/m 1,7 km/h (1 Bft) O 0,00 h 0 W/m 5,5 C 13,4 C 1,7 km/h (1 Bft)
20.04.2011 00:00 12,7 C 63 % 1015,5 hPa 0,0 l/m 2,0 km/h (1 Bft) SO 0,00 h 0 W/m 5,9 C 12,7 C 2,0 km/h (1 Bft)
20.04.2011 01:00 12,0 C 67 % 1015,5 hPa 0,0 l/m 1,4 km/h (1 Bft) O-SO 0,00 h 0 W/m 6,1 C 12,0 C 1,4 km/h (1 Bft)
20.04.2011 02:00 11,4 C 69 % 1015,5 hPa 0,0 l/m 2,3 km/h (1 Bft) S 0,00 h 0 W/m 5,9 C 11,4 C 2,3 km/h (1 Bft)
20.04.2011 03:00 10,9 C 68 % 1015,5 hPa 0,0 l/m 3,8 km/h (1 Bft) S 0,00 h 0 W/m 5,2 C 10,9 C 3,8 km/h (1 Bft)
20.04.2011 04:00 10,6 C 67 % 1015,5 hPa 0,0 l/m 3,2 km/h (1 Bft) S 0,00 h 0 W/m 4,7 C 10,6 C 3,2 km/h (1 Bft)
20.04.2011 05:00 10,2 C 67 % 1015,5 hPa 0,0 l/m 2,8 km/h (1 Bft) S-SO 0,00 h 0 W/m 4,4 C 10,2 C 2,8 km/h (1 Bft)
20.04.2011 06:00 10,0 C 68 % 1015,5 hPa 0,0 l/m 2,9 km/h (1 Bft) S-SO 0,00 h 0 W/m 4,3 C 10,0 C 2,9 km/h (1 Bft)
20.04.2011 07:00 10,1 C 69 % 1016,1 hPa 0,0 l/m 2,7 km/h (1 Bft) S-SO 0,00 h 0 W/m 4,6 C 10,1 C 2,7 km/h (1 Bft)
20.04.2011 08:00 11,4 C 68 % 1016,5 hPa 0,0 l/m 5,8 km/h (2 Bft) S-SO 0,00 h 0 W/m 5,6 C 11,1 C 5,8 km/h (2 Bft)
20.04.2011 09:00 13,6 C 65 % 1016,5 hPa 0,0 l/m 6,7 km/h (2 Bft) S 0,00 h 0 W/m 7,0 C 13,3 C 6,7 km/h (2 Bft)
20.04.2011 10:00 16,8 C 59 % 1016,5 hPa 0,0 l/m 6,3 km/h (2 Bft) SO 0,00 h 0 W/m 8,7 C 16,5 C 6,3 km/h (2 Bft)
20.04.2011 11:00 19,9 C 52 % 1016,5 hPa 0,0 l/m 6,6 km/h (2 Bft) O-SO 0,00 h 0 W/m 9,6 C 19,3 C 6,6 km/h (2 Bft)
20.04.2011 12:00 20,8 C 49 % 1016,4 hPa 0,0 l/m 8,3 km/h (2 Bft) SO 0,00 h 0 W/m 9,6 C 20,1 C 8,3 km/h (2 Bft)
20.04.2011 13:00 22,4 C 44 % 1015,7 hPa 0,0 l/m 7,7 km/h (2 Bft) O-NO 0,00 h 0 W/m 9,4 C 21,8 C 7,7 km/h (2 Bft)
20.04.2011 14:00 22,3 C 45 % 1015,5 hPa 0,0 l/m 8,1 km/h (2 Bft) N-NO 0,00 h 0 W/m 9,6 C 21,6 C 8,1 km/h (2 Bft)
20.04.2011 15:00 21,1 C 49 % 1015,5 hPa 0,0 l/m 9,4 km/h (2 Bft) NO 0,00 h 0 W/m 10,0 C 20,0 C 9,4 km/h (2 Bft)
20.04.2011 16:00 20,0 C 49 % 1015,3 hPa 0,0 l/m 12,9 km/h (3 Bft) NO 0,00 h 0 W/m 9,0 C 17,8 C 12,9 km/h (3 Bft)
20.04.2011 17:00 18,4 C 56 % 1015,2 hPa 0,0 l/m 14,0 km/h (3 Bft) NO 0,00 h 0 W/m 9,3 C 15,6 C 14,0 km/h (3 Bft)
20.04.2011 18:00 17,6 C 57 % 1015,3 hPa 0,0 l/m 11,6 km/h (2 Bft) NO 0,00 h 0 W/m 9,0 C 15,4 C 11,6 km/h (2 Bft)
20.04.2011 19:00 16,7 C 60 % 1015,1 hPa 0,0 l/m 7,3 km/h (2 Bft) NO 0,00 h 0 W/m 8,8 C 15,8 C 7,3 km/h (2 Bft)
20.04.2011 20:00 15,4 C 67 % 1015,5 hPa 0,0 l/m 5,8 km/h (2 Bft) NO 0,00 h 0 W/m 9,3 C 15,1 C 5,8 km/h (2 Bft)
20.04.2011 21:00 15,0 C 66 % 1015,5 hPa 0,0 l/m 7,8 km/h (2 Bft) NO 0,00 h 0 W/m 8,6 C 14,1 C 7,8 km/h (2 Bft)
20.04.2011 22:00 14,4 C 66 % 1015,5 hPa 0,0 l/m 2,6 km/h (1 Bft) NO 0,00 h 0 W/m 8,2 C 14,2 C 2,6 km/h (1 Bft)
20.04.2011 23:00 13,6 C 69 % 1015,5 hPa 0,0 l/m 2,7 km/h (1 Bft) SO 0,00 h 0 W/m 8,1 C 13,6 C 2,7 km/h (1 Bft)
21.04.2011 00:00 13,4 C 68 % 1016,5 hPa 0,0 l/m 3,4 km/h (1 Bft) O-SO 0,00 h 0 W/m 7,6 C 13,4 C 3,4 km/h (1 Bft)
21.04.2011 01:00 13,0 C 69 % 1016,5 hPa 0,0 l/m 2,9 km/h (1 Bft) O-SO 0,00 h 0 W/m 7,4 C 13,0 C 2,9 km/h (1 Bft)
21.04.2011 02:00 12,3 C 71 % 1015,9 hPa 0,0 l/m 1,3 km/h (1 Bft) O-SO 0,00 h 0 W/m 7,2 C 12,2 C 1,3 km/h (1 Bft)
21.04.2011 03:00 11,8 C 74 % 1015,5 hPa 0,0 l/m 4,5 km/h (1 Bft) O-SO 0,00 h 0 W/m 7,4 C 11,8 C 4,5 km/h (1 Bft)
21.04.2011 04:00 11,6 C 76 % 1015,5 hPa 0,0 l/m 2,6 km/h (1 Bft) O-SO 0,00 h 0 W/m 7,5 C 11,5 C 2,6 km/h (1 Bft)
21.04.2011 05:00 11,3 C 78 % 1015,6 hPa 0,0 l/m 3,7 km/h (1 Bft) O-SO 0,00 h 0 W/m 7,6 C 11,2 C 3,7 km/h (1 Bft)
21.04.2011 06:00 11,2 C 78 % 1016,5 hPa 0,0 l/m 8,3 km/h (2 Bft) O-SO 0,00 h 0 W/m 7,5 C 9,8 C 8,3 km/h (2 Bft)
21.04.2011 07:00 11,6 C 77 % 1016,5 hPa 0,0 l/m 8,7 km/h (2 Bft) O-SO 0,00 h 0 W/m 7,6 C 10,0 C 8,7 km/h (2 Bft)
21.04.2011 08:00 12,6 C 73 % 1016,5 hPa 0,0 l/m 9,2 km/h (2 Bft) SO 0,00 h 0 W/m 8,0 C 11,0 C 9,2 km/h (2 Bft)
21.04.2011 09:00 14,1 C 69 % 1016,5 hPa 0,0 l/m 8,9 km/h (2 Bft) SO 0,00 h 0 W/m 8,5 C 12,7 C 8,9 km/h (2 Bft)
21.04.2011 10:00 16,4 C 68 % 1016,5 hPa 0,0 l/m 5,3 km/h (1 Bft) NO 0,00 h 0 W/m 10,6 C 16,0 C 5,3 km/h (1 Bft)
21.04.2011 11:00 19,6 C 59 % 1016,5 hPa 0,0 l/m 8,4 km/h (2 Bft) O 0,00 h 0 W/m 11,3 C 18,6 C 8,4 km/h (2 Bft)
21.04.2011 12:00 21,7 C 49 % 1016,3 hPa 0,0 l/m 15,4 km/h (3 Bft) O-SO 0,00 h 0 W/m 10,4 C 19,2 C 15,4 km/h (3 Bft)
21.04.2011 13:00 22,9 C 41 % 1015,5 hPa 0,0 l/m 13,3 km/h (3 Bft) O 0,00 h 0 W/m 8,9 C 21,2 C 13,3 km/h (3 Bft)
21.04.2011 14:00 23,5 C 38 % 1015,5 hPa 0,0 l/m 14,4 km/h (3 Bft) O 0,00 h 0 W/m 8,3 C 21,6 C 14,4 km/h (3 Bft)
21.04.2011 15:00 23,5 C 35 % 1015,4 hPa 0,0 l/m 13,9 km/h (3 Bft) O 0,00 h 0 W/m 7,2 C 21,7 C 13,9 km/h (3 Bft)
21.04.2011 16:00 23,2 C 33 % 1014,5 hPa 0,0 l/m 14,2 km/h (3 Bft) O 0,00 h 0 W/m 6,0 C 21,3 C 14,2 km/h (3 Bft)
21.04.2011 17:00 22,4 C 33 % 1014,5 hPa 0,0 l/m 12,4 km/h (2 Bft) O 0,00 h 0 W/m 5,4 C 20,8 C 12,4 km/h (2 Bft)
21.04.2011 18:00 21,1 C 35 % 1014,5 hPa 0,0 l/m 9,8 km/h (2 Bft) O-SO 0,00 h 0 W/m 5,2 C 19,8 C 9,8 km/h (2 Bft)
21.04.2011 19:00 19,5 C 40 % 1013,9 hPa 0,0 l/m 8,2 km/h (2 Bft) O-SO 0,00 h 0 W/m 5,6 C 18,6 C 8,2 km/h (2 Bft)
21.04.2011 20:00 17,6 C 49 % 1014,4 hPa 0,0 l/m 8,6 km/h (2 Bft) O 0,00 h 0 W/m 6,7 C 16,3 C 8,6 km/h (2 Bft)
21.04.2011 21:00 16,4 C 52 % 1014,5 hPa 0,0 l/m 13,7 km/h (3 Bft) O-SO 0,00 h 0 W/m 6,6 C 13,3 C 13,7 km/h (3 Bft)
21.04.2011 22:00 15,2 C 57 % 1014,5 hPa 0,0 l/m 9,8 km/h (2 Bft) O-SO 0,00 h 0 W/m 6,8 C 13,3 C 9,8 km/h (2 Bft)
21.04.2011 23:00 14,1 C 59 % 1014,5 hPa 0,0 l/m 7,0 km/h (2 Bft) SO 0,00 h 0 W/m 6,2 C 13,2 C 7,0 km/h (2 Bft)
22.04.2011 00:00 13,5 C 59 % 1014,5 hPa 0,0 l/m 4,7 km/h (1 Bft) SO 0,00 h 0 W/m 5,7 C 13,3 C 4,7 km/h (1 Bft)
22.04.2011 01:00 13,2 C 61 % 1014,5 hPa 0,0 l/m 8,1 km/h (2 Bft) SO 0,00 h 0 W/m 5,7 C 11,6 C 8,1 km/h (2 Bft)
22.04.2011 02:00 13,0 C 61 % 1014,5 hPa 0,0 l/m 9,9 km/h (2 Bft) SO 0,00 h 0 W/m 5,7 C 10,9 C 9,9 km/h (2 Bft)
22.04.2011 03:00 12,7 C 64 % 1014,0 hPa 0,0 l/m 10,2 km/h (2 Bft) SO 0,00 h 0 W/m 6,1 C 10,5 C 10,2 km/h (2 Bft)
22.04.2011 04:00 12,3 C 67 % 1013,5 hPa 0,0 l/m 8,1 km/h (2 Bft) SO 0,00 h 0 W/m 6,2 C 11,0 C 8,1 km/h (2 Bft)
22.04.2011 05:00 11,8 C 68 % 1013,5 hPa 0,0 l/m 7,5 km/h (2 Bft) SO 0,00 h 0 W/m 6,2 C 10,8 C 7,5 km/h (2 Bft)
22.04.2011 06:00 11,5 C 69 % 1013,5 hPa 0,0 l/m 7,8 km/h (2 Bft) O-SO 0,00 h 0 W/m 6,1 C 10,5 C 7,8 km/h (2 Bft)
22.04.2011 07:00 11,8 C 70 % 1014,2 hPa 0,0 l/m 11,0 km/h (2 Bft) SO 0,00 h 0 W/m 6,5 C 9,1 C 11,0 km/h (2 Bft)
22.04.2011 08:00 12,5 C 66 % 1014,3 hPa 0,0 l/m 12,9 km/h (3 Bft) SO 0,00 h 0 W/m 6,3 C 9,1 C 12,9 km/h (3 Bft)
22.04.2011 09:00 13,5 C 62 % 1013,5 hPa 0,0 l/m 14,5 km/h (3 Bft) SO 0,00 h 0 W/m 6,3 C 9,7 C 14,5 km/h (3 Bft)
22.04.2011 10:00 15,6 C 60 % 1013,5 hPa 0,0 l/m 13,3 km/h (3 Bft) O-SO 0,00 h 0 W/m 7,9 C 12,6 C 13,3 km/h (3 Bft)
22.04.2011 11:00 18,6 C 52 % 1013,5 hPa 0,0 l/m 13,6 km/h (3 Bft) SO 0,00 h 0 W/m 8,5 C 16,0 C 13,6 km/h (3 Bft)
22.04.2011 12:00 21,1 C 43 % 1013,5 hPa 0,0 l/m 16,4 km/h (3 Bft) SO 0,00 h 0 W/m 7,9 C 18,4 C 16,4 km/h (3 Bft)
22.04.2011 13:00 22,9 C 38 % 1012,9 hPa 0,0 l/m 15,7 km/h (3 Bft) O 0,00 h 0 W/m 7,8 C 20,7 C 15,7 km/h (3 Bft)
22.04.2011 14:00 23,7 C 34 % 1012,5 hPa 0,0 l/m 15,0 km/h (3 Bft) O 0,00 h 0 W/m 6,7 C 21,8 C 15,0 km/h (3 Bft)
22.04.2011 15:00 23,8 C 33 % 1012,4 hPa 0,0 l/m 16,0 km/h (3 Bft) O 0,00 h 0 W/m 6,4 C 21,7 C 16,0 km/h (3 Bft)
22.04.2011 16:00 23,4 C 35 % 1011,5 hPa 0,0 l/m 14,4 km/h (3 Bft) O 0,00 h 0 W/m 7,1 C 21,4 C 14,4 km/h (3 Bft)
22.04.2011 17:00 22,6 C 36 % 1011,5 hPa 0,0 l/m 13,4 km/h (3 Bft) O 0,00 h 0 W/m 6,6 C 20,7 C 13,4 km/h (3 Bft)
22.04.2011 18:00 21,1 C 40 % 1011,5 hPa 0,0 l/m 15,7 km/h (3 Bft) O-SO 0,00 h 0 W/m 6,8 C 18,4 C 15,7 km/h (3 Bft)
22.04.2011 19:00 19,7 C 42 % 1011,5 hPa 0,0 l/m 17,2 km/h (3 Bft) SO 0,00 h 0 W/m 6,6 C 16,5 C 17,2 km/h (3 Bft)
22.04.2011 20:00 18,1 C 48 % 1011,9 hPa 0,0 l/m 15,1 km/h (3 Bft) O-SO 0,00 h 0 W/m 7,0 C 15,0 C 15,1 km/h (3 Bft)
22.04.2011 21:00 16,6 C 53 % 1012,5 hPa 0,0 l/m 15,0 km/h (3 Bft) SO 0,00 h 0 W/m 7,1 C 13,2 C 15,0 km/h (3 Bft)
22.04.2011 22:00 15,8 C 57 % 1012,5 hPa 0,0 l/m 15,4 km/h (3 Bft) O-SO 0,00 h 0 W/m 7,2 C 12,1 C 15,4 km/h (3 Bft)
22.04.2011 23:00 15,2 C 57 % 1012,5 hPa 0,0 l/m 19,3 km/h (3 Bft) SO 0,00 h 0 W/m 6,6 C 10,2 C 19,3 km/h (3 Bft)
23.04.2011 00:00 14,7 C 57 % 1013,3 hPa 0,0 l/m 14,6 km/h (3 Bft) SO 0,00 h 0 W/m 6,2 C 11,0 C 14,6 km/h (3 Bft)
23.04.2011 01:00 14,0 C 59 % 1013,4 hPa 0,0 l/m 7,3 km/h (2 Bft) SO 0,00 h 0 W/m 6,0 C 13,1 C 7,3 km/h (2 Bft)
23.04.2011 02:00 13,2 C 62 % 1012,5 hPa 0,0 l/m 2,7 km/h (1 Bft) O-SO 0,00 h 0 W/m 6,1 C 13,1 C 2,7 km/h (1 Bft)
23.04.2011 03:00 12,4 C 64 % 1012,5 hPa 0,0 l/m 6,4 km/h (2 Bft) O-SO 0,00 h 0 W/m 5,8 C 11,8 C 6,4 km/h (2 Bft)
23.04.2011 04:00 12,0 C 66 % 1012,5 hPa 0,0 l/m 6,1 km/h (2 Bft) O-SO 0,00 h 0 W/m 5,8 C 11,4 C 6,1 km/h (2 Bft)
23.04.2011 05:00 11,8 C 68 % 1012,5 hPa 0,0 l/m 5,9 km/h (2 Bft) O-SO 0,00 h 0 W/m 6,1 C 11,4 C 5,9 km/h (2 Bft)
23.04.2011 06:00 11,7 C 69 % 1012,5 hPa 0,0 l/m 8,7 km/h (2 Bft) O-SO 0,00 h 0 W/m 6,3 C 10,3 C 8,7 km/h (2 Bft)
23.04.2011 07:00 12,1 C 71 % 1013,5 hPa 0,0 l/m 10,1 km/h (2 Bft) O-SO 0,00 h 0 W/m 7,0 C 9,8 C 10,1 km/h (2 Bft)
23.04.2011 08:00 13,2 C 68 % 1013,5 hPa 0,0 l/m 13,7 km/h (3 Bft) SO 0,00 h 0 W/m 7,4 C 9,6 C 13,7 km/h (3 Bft)
23.04.2011 09:00 14,8 C 63 % 1013,5 hPa 0,0 l/m 13,1 km/h (3 Bft) O 0,00 h 0 W/m 7,8 C 11,7 C 13,1 km/h (3 Bft)
23.04.2011 10:00 17,1 C 59 % 1013,6 hPa 0,0 l/m 15,1 km/h (3 Bft) O-SO 0,00 h 0 W/m 9,1 C 13,8 C 15,1 km/h (3 Bft)
23.04.2011 11:00 19,7 C 52 % 1013,5 hPa 0,0 l/m 19,2 km/h (3 Bft) SO 0,00 h 0 W/m 9,5 C 16,1 C 19,2 km/h (3 Bft)
23.04.2011 12:00 21,4 C 45 % 1013,5 hPa 0,0 l/m 19,7 km/h (3 Bft) O-SO 0,00 h 0 W/m 8,8 C 18,1 C 19,7 km/h (3 Bft)
23.04.2011 13:00 22,7 C 42 % 1013,5 hPa 0,0 l/m 20,7 km/h (4 Bft) SO 0,00 h 0 W/m 9,1 C 19,7 C 20,7 km/h (4 Bft)
23.04.2011 14:00 23,2 C 40 % 1013,5 hPa 0,0 l/m 23,5 km/h (4 Bft) O-SO 0,00 h 0 W/m 8,7 C 19,9 C 23,5 km/h (4 Bft)
23.04.2011 15:00 23,4 C 40 % 1012,8 hPa 0,0 l/m 22,1 km/h (4 Bft) O-SO 0,00 h 0 W/m 8,9 C 20,4 C 22,1 km/h (4 Bft)
23.04.2011 16:00 22,9 C 41 % 1012,5 hPa 0,0 l/m 21,2 km/h (4 Bft) O-SO 0,00 h 0 W/m 9,1 C 19,9 C 21,2 km/h (4 Bft)
23.04.2011 17:00 21,4 C 45 % 1012,6 hPa 0,0 l/m 18,2 km/h (3 Bft) O-SO 0,00 h 0 W/m 9,1 C 18,4 C 18,2 km/h (3 Bft)
23.04.2011 18:00 20,0 C 49 % 1013,4 hPa 0,0 l/m 17,7 km/h (3 Bft) SO 0,00 h 0 W/m 8,8 C 16,6 C 17,7 km/h (3 Bft)
23.04.2011 19:00 18,7 C 51 % 1013,4 hPa 0,0 l/m 19,5 km/h (3 Bft) O-SO 0,00 h 0 W/m 8,4 C 14,7 C 19,5 km/h (3 Bft)
23.04.2011 20:00 17,4 C 54 % 1013,5 hPa 0,0 l/m 19,1 km/h (3 Bft) O-SO 0,00 h 0 W/m 8,0 C 13,0 C 19,1 km/h (3 Bft)
23.04.2011 21:00 16,2 C 56 % 1014,5 hPa 0,0 l/m 19,6 km/h (3 Bft) SO 0,00 h 0 W/m 7,4 C 11,4 C 19,6 km/h (3 Bft)
23.04.2011 22:00 15,2 C 59 % 1014,5 hPa 0,0 l/m 15,2 km/h (3 Bft) SO 0,00 h 0 W/m 7,1 C 11,5 C 15,2 km/h (3 Bft)
23.04.2011 23:00 14,5 C 62 % 1015,2 hPa 0,0 l/m 12,6 km/h (2 Bft) SO 0,00 h 0 W/m 7,4 C 11,6 C 12,6 km/h (2 Bft)
24.04.2011 00:00 13,9 C 64 % 1015,5 hPa 0,0 l/m 14,1 km/h (3 Bft) SO 0,00 h 0 W/m 7,2 C 10,2 C 14,1 km/h (3 Bft)
24.04.2011 01:00 13,3 C 65 % 1015,5 hPa 0,0 l/m 15,9 km/h (3 Bft) SO 0,00 h 0 W/m 6,9 C 9,1 C 15,9 km/h (3 Bft)
24.04.2011 02:00 12,7 C 67 % 1015,5 hPa 0,0 l/m 14,8 km/h (3 Bft) SO 0,00 h 0 W/m 6,6 C 8,5 C 14,8 km/h (3 Bft)
24.04.2011 03:00 12,2 C 68 % 1015,5 hPa 0,0 l/m 14,5 km/h (3 Bft) SO 0,00 h 0 W/m 6,4 C 8,1 C 14,5 km/h (3 Bft)
24.04.2011 04:00 11,7 C 70 % 1015,5 hPa 0,0 l/m 13,1 km/h (3 Bft) SO 0,00 h 0 W/m 6,3 C 8,0 C 13,1 km/h (3 Bft)
24.04.2011 05:00 11,3 C 70 % 1015,5 hPa 0,0 l/m 12,7 km/h (3 Bft) SO 0,00 h 0 W/m 6,1 C 7,8 C 12,7 km/h (3 Bft)
24.04.2011 06:00 11,1 C 71 % 1015,9 hPa 0,0 l/m 12,3 km/h (2 Bft) SO 0,00 h 0 W/m 6,0 C 7,7 C 12,3 km/h (2 Bft)
24.04.2011 07:00 11,2 C 72 % 1016,6 hPa 0,0 l/m 11,3 km/h (2 Bft) SO 0,00 h 0 W/m 6,3 C 8,3 C 11,3 km/h (2 Bft)
24.04.2011 08:00 12,3 C 70 % 1017,5 hPa 0,0 l/m 12,2 km/h (2 Bft) SO 0,00 h 0 W/m 7,0 C 9,2 C 12,2 km/h (2 Bft)
24.04.2011 09:00 14,5 C 66 % 1017,5 hPa 0,0 l/m 12,5 km/h (2 Bft) SO 0,00 h 0 W/m 8,1 C 11,6 C 12,5 km/h (2 Bft)
24.04.2011 10:00 16,4 C 62 % 1018,1 hPa 0,0 l/m 12,6 km/h (2 Bft) SO 0,00 h 0 W/m 9,1 C 13,7 C 12,6 km/h (2 Bft)
24.04.2011 11:00 19,1 C 58 % 1018,5 hPa 0,0 l/m 13,4 km/h (3 Bft) SO 0,00 h 0 W/m 10,7 C 16,7 C 13,4 km/h (3 Bft)
24.04.2011 12:00 21,5 C 51 % 1018,5 hPa 0,0 l/m 12,7 km/h (3 Bft) O 0,00 h 0 W/m 10,8 C 19,7 C 12,7 km/h (3 Bft)
24.04.2011 13:00 23,0 C 40 % 1018,5 hPa 0,0 l/m 16,6 km/h (3 Bft) SO 0,00 h 0 W/m 8,7 C 20,7 C 16,6 km/h (3 Bft)
24.04.2011 14:00 23,8 C 37 % 1018,5 hPa 0,0 l/m 12,8 km/h (3 Bft) O 0,00 h 0 W/m 8,1 C 22,3 C 12,8 km/h (3 Bft)
24.04.2011 15:00 24,0 C 33 % 1018,5 hPa 0,0 l/m 13,9 km/h (3 Bft) SO 0,00 h 0 W/m 6,5 C 22,3 C 13,9 km/h (3 Bft)
24.04.2011 16:00 23,8 C 29 % 1018,5 hPa 0,0 l/m 12,6 km/h (3 Bft) SO 0,00 h 0 W/m 4,7 C 22,2 C 12,6 km/h (3 Bft)
24.04.2011 17:00 22,9 C 31 % 1018,5 hPa 0,0 l/m 11,6 km/h (2 Bft) O 0,00 h 0 W/m 4,7 C 21,5 C 11,6 km/h (2 Bft)
24.04.2011 18:00 21,3 C 36 % 1018,5 hPa 0,0 l/m 11,8 km/h (2 Bft) O-SO 0,00 h 0 W/m 5,7 C 19,7 C 11,8 km/h (2 Bft)
24.04.2011 19:00 19,6 C 43 % 1018,5 hPa 0,0 l/m 8,4 km/h (2 Bft) O-SO 0,00 h 0 W/m 6,7 C 18,6 C 8,4 km/h (2 Bft)
24.04.2011 20:00 17,8 C 51 % 1019,3 hPa 0,0 l/m 12,3 km/h (2 Bft) O-SO 0,00 h 0 W/m 7,4 C 15,5 C 12,3 km/h (2 Bft)
24.04.2011 21:00 16,4 C 56 % 1019,7 hPa 0,0 l/m 10,3 km/h (2 Bft) O 0,00 h 0 W/m 7,6 C 14,6 C 10,3 km/h (2 Bft)
24.04.2011 22:00 15,3 C 59 % 1020,5 hPa 0,0 l/m 7,3 km/h (2 Bft) O 0,00 h 0 W/m 7,3 C 14,5 C 7,3 km/h (2 Bft)
24.04.2011 23:00 14,5 C 62 % 1020,5 hPa 0,0 l/m 8,1 km/h (2 Bft) O 0,00 h 0 W/m 7,2 C 13,5 C 8,1 km/h (2 Bft)
Min-Datum _ 18.04.11 24.04.11 22.04.11 - 18.04.11 - - - 20.04.11 24.04.11 18.04.11
_ Min-Zeit 05:23 16:04 15:59 - 00:02 - - - 05:59 06:14 00:02
Minimum _ 7,8 C 29 % 1011,5 hPa - 0,0 km/h (0 Bft) - - - 4,2 C 5,2 C 0,0 km/h (0 Bft)
Max-Datum _ 24.04.11 18.04.11 18.04.11 18.04.11 23.04.11 - 18.04.11 18.04.11 21.04.11 24.04.11 23.04.11
_ Max-Zeit 14:49 03:43 00:02 00:02 14:04 - 00:02 00:02 11:19 15:34 14:04
Maximum _ 24,3 C 89 % 1024,5 hPa 0,0 l/m 31,1 km/h
O-SO (5 Bft)
- 0,00 h 0 W/m 11,8 C 23,9 C 31,1 km/h
O-SO (5 Bft)
Durchschnitt _ 15,4 C 61 % 1016,3 hPa #0,0 l/m 9,3 km/h (2 Bft) O-SO #0 min. 0 W/m 7,2 C 13,9 C 9,3 km/h (2 Bft)
copyright by Holger Just